South Yankton, Nebraska
Current Conditions -  °F | °C
As of 4:35 PM on Friday 31 Oct 2014 (Local Time) from KYKN Reporting Station
Clear Clear  
Wind Chill: 34°   Ceiling: Unl
Heat Index: 39°   Visibility: 10mi
Dew Point: 16°   Wind: 7mph
Humidity: 39%   Direction: 130°SE
Pressure: 30.47"   Gusts: NA
Location:  42.8189°N, 97.344°W
Report Text: KYKN 312135Z AUTO 13006KT 10SM CLR 04/M09 A3047 RMK AO1
Loading
Personal Weather Stations






























Interactive Weather Map
Tropical Storm Tracking
New forecast layout! Learn more

10-Day Weather Forecast

Advertisements
Track Severe Weather on mobile